sensor_id;sensor_type;location;lat;lon;timestamp;P1;durP1;ratioP1;P2;durP2;ratioP2
8952;SDS011;4511;50.890;8.054;2024-02-21T00:01:21;13.40;;;6.77;;
8952;SDS011;4511;50.890;8.054;2024-02-21T00:03:48;11.77;;;6.77;;
8952;SDS011;4511;50.890;8.054;2024-02-21T00:06:15;15.87;;;7.50;;
8952;SDS011;4511;50.890;8.054;2024-02-21T00:08:42;12.57;;;7.07;;
8952;SDS011;4511;50.890;8.054;2024-02-21T00:11:08;15.53;;;6.93;;
8952;SDS011;4511;50.890;8.054;2024-02-21T00:13:35;13.27;;;6.83;;
8952;SDS011;4511;50.890;8.054;2024-02-21T00:16:03;17.10;;;7.93;;
8952;SDS011;4511;50.890;8.054;2024-02-21T00:18:30;11.90;;;7.10;;
8952;SDS011;4511;50.890;8.054;2024-02-21T00:20:57;11.23;;;6.97;;
8952;SDS011;4511;50.890;8.054;2024-02-21T00:23:24;16.20;;;6.93;;
8952;SDS011;4511;50.890;8.054;2024-02-21T00:25:50;14.27;;;7.20;;
8952;SDS011;4511;50.890;8.054;2024-02-21T00:28:17;11.70;;;6.93;;
8952;SDS011;4511;50.890;8.054;2024-02-21T00:30:44;18.23;;;7.57;;
8952;SDS011;4511;50.890;8.054;2024-02-21T00:33:13;9.93;;;7.07;;
8952;SDS011;4511;50.890;8.054;2024-02-21T00:35:40;17.67;;;7.73;;
8952;SDS011;4511;50.890;8.054;2024-02-21T00:38:07;12.87;;;6.93;;
8952;SDS011;4511;50.890;8.054;2024-02-21T00:40:34;19.43;;;7.47;;
8952;SDS011;4511;50.890;8.054;2024-02-21T00:43:01;13.97;;;7.40;;
8952;SDS011;4511;50.890;8.054;2024-02-21T00:45:28;12.23;;;7.03;;
8952;SDS011;4511;50.890;8.054;2024-02-21T00:47:55;20.07;;;7.50;;
8952;SDS011;4511;50.890;8.054;2024-02-21T00:50:23;15.30;;;6.87;;
8952;SDS011;4511;50.890;8.054;2024-02-21T00:52:50;14.57;;;7.37;;
8952;SDS011;4511;50.890;8.054;2024-02-21T00:55:17;16.30;;;7.50;;
8952;SDS011;4511;50.890;8.054;2024-02-21T00:57:43;15.47;;;7.57;;
8952;SDS011;4511;50.890;8.054;2024-02-21T01:00:10;13.57;;;7.70;;
8952;SDS011;4511;50.890;8.054;2024-02-21T01:02:38;14.27;;;7.97;;
8952;SDS011;4511;50.890;8.054;2024-02-21T01:05:05;16.37;;;8.57;;
8952;SDS011;4511;50.890;8.054;2024-02-21T01:07:33;16.07;;;7.60;;
8952;SDS011;4511;50.890;8.054;2024-02-21T01:10:00;18.33;;;7.50;;
8952;SDS011;4511;50.890;8.054;2024-02-21T01:12:26;16.17;;;8.70;;
8952;SDS011;4511;50.890;8.054;2024-02-21T01:14:53;16.43;;;8.67;;
8952;SDS011;4511;50.890;8.054;2024-02-21T01:17:20;15.80;;;8.77;;
8952;SDS011;4511;50.890;8.054;2024-02-21T01:19:47;17.97;;;8.20;;
8952;SDS011;4511;50.890;8.054;2024-02-21T01:22:13;15.13;;;8.60;;
8952;SDS011;4511;50.890;8.054;2024-02-21T01:24:42;17.77;;;8.23;;
8952;SDS011;4511;50.890;8.054;2024-02-21T01:27:09;21.13;;;8.70;;
8952;SDS011;4511;50.890;8.054;2024-02-21T01:29:35;15.43;;;8.30;;
8952;SDS011;4511;50.890;8.054;2024-02-21T01:32:02;14.87;;;8.23;;
8952;SDS011;4511;50.890;8.054;2024-02-21T01:34:29;17.63;;;8.80;;
8952;SDS011;4511;50.890;8.054;2024-02-21T01:36:56;15.57;;;8.70;;
8952;SDS011;4511;50.890;8.054;2024-02-21T01:39:24;13.87;;;7.43;;
8952;SDS011;4511;50.890;8.054;2024-02-21T01:41:52;16.33;;;8.50;;
8952;SDS011;4511;50.890;8.054;2024-02-21T01:44:18;15.17;;;8.60;;
8952;SDS011;4511;50.890;8.054;2024-02-21T01:46:45;18.23;;;9.20;;
8952;SDS011;4511;50.890;8.054;2024-02-21T01:49:12;18.10;;;8.10;;
8952;SDS011;4511;50.890;8.054;2024-02-21T01:51:39;16.37;;;7.80;;
8952;SDS011;4511;50.890;8.054;2024-02-21T01:54:06;19.90;;;8.20;;
8952;SDS011;4511;50.890;8.054;2024-02-21T01:56:33;13.40;;;8.50;;
8952;SDS011;4511;50.890;8.054;2024-02-21T01:59:01;11.80;;;7.73;;
8952;SDS011;4511;50.890;8.054;2024-02-21T02:01:29;14.77;;;8.30;;
8952;SDS011;4511;50.890;8.054;2024-02-21T02:03:56;16.00;;;8.57;;
8952;SDS011;4511;50.890;8.054;2024-02-21T02:06:25;13.87;;;8.37;;
8952;SDS011;4511;50.890;8.054;2024-02-21T02:08:52;15.13;;;7.70;;
8952;SDS011;4511;50.890;8.054;2024-02-21T02:11:19;14.07;;;8.00;;
8952;SDS011;4511;50.890;8.054;2024-02-21T02:13:46;13.10;;;8.00;;
8952;SDS011;4511;50.890;8.054;2024-02-21T02:16:14;15.93;;;8.43;;
8952;SDS011;4511;50.890;8.054;2024-02-21T02:18:41;14.87;;;7.60;;
8952;SDS011;4511;50.890;8.054;2024-02-21T02:21:08;13.23;;;7.50;;
8952;SDS011;4511;50.890;8.054;2024-02-21T02:23:44;14.83;;;7.80;;
8952;SDS011;4511;50.890;8.054;2024-02-21T02:26:10;12.37;;;7.90;;
8952;SDS011;4511;50.890;8.054;2024-02-21T02:28:37;16.30;;;7.30;;
8952;SDS011;4511;50.890;8.054;2024-02-21T02:31:04;10.33;;;7.70;;
8952;SDS011;4511;50.890;8.054;2024-02-21T02:33:32;12.97;;;7.90;;
8952;SDS011;4511;50.890;8.054;2024-02-21T02:35:58;16.33;;;7.30;;
8952;SDS011;4511;50.890;8.054;2024-02-21T02:38:25;13.43;;;7.47;;
8952;SDS011;4511;50.890;8.054;2024-02-21T02:40:53;15.07;;;8.23;;
8952;SDS011;4511;50.890;8.054;2024-02-21T02:43:20;18.57;;;8.00;;
8952;SDS011;4511;50.890;8.054;2024-02-21T02:45:46;10.03;;;7.00;;
8952;SDS011;4511;50.890;8.054;2024-02-21T02:48:13;13.13;;;7.20;;
8952;SDS011;4511;50.890;8.054;2024-02-21T02:50:40;12.87;;;7.50;;
8952;SDS011;4511;50.890;8.054;2024-02-21T02:53:06;13.40;;;8.23;;
8952;SDS011;4511;50.890;8.054;2024-02-21T02:55:33;15.53;;;7.87;;
8952;SDS011;4511;50.890;8.054;2024-02-21T02:58:02;14.13;;;7.70;;
8952;SDS011;4511;50.890;8.054;2024-02-21T03:00:29;14.30;;;7.80;;
8952;SDS011;4511;50.890;8.054;2024-02-21T03:02:55;12.80;;;7.47;;
8952;SDS011;4511;50.890;8.054;2024-02-21T03:05:22;17.63;;;8.17;;
8952;SDS011;4511;50.890;8.054;2024-02-21T03:07:49;18.00;;;7.60;;
8952;SDS011;4511;50.890;8.054;2024-02-21T03:10:15;16.60;;;7.97;;
8952;SDS011;4511;50.890;8.054;2024-02-21T03:12:42;12.10;;;7.17;;
8952;SDS011;4511;50.890;8.054;2024-02-21T03:15:11;12.03;;;8.03;;
8952;SDS011;4511;50.890;8.054;2024-02-21T03:17:39;12.00;;;7.73;;
8952;SDS011;4511;50.890;8.054;2024-02-21T03:20:06;14.10;;;6.53;;
8952;SDS011;4511;50.890;8.054;2024-02-21T03:22:35;12.67;;;7.40;;
8952;SDS011;4511;50.890;8.054;2024-02-21T03:25:01;13.67;;;6.93;;
8952;SDS011;4511;50.890;8.054;2024-02-21T03:27:28;14.10;;;7.80;;
8952;SDS011;4511;50.890;8.054;2024-02-21T03:29:55;11.53;;;7.23;;
8952;SDS011;4511;50.890;8.054;2024-02-21T03:32:23;15.97;;;7.40;;
8952;SDS011;4511;50.890;8.054;2024-02-21T03:34:49;12.43;;;7.17;;
8952;SDS011;4511;50.890;8.054;2024-02-21T03:37:16;17.87;;;7.37;;
8952;SDS011;4511;50.890;8.054;2024-02-21T03:39:43;18.33;;;8.63;;
8952;SDS011;4511;50.890;8.054;2024-02-21T03:42:10;15.73;;;8.10;;
8952;SDS011;4511;50.890;8.054;2024-02-21T03:44:37;17.00;;;8.03;;
8952;SDS011;4511;50.890;8.054;2024-02-21T03:47:04;12.93;;;7.37;;
8952;SDS011;4511;50.890;8.054;2024-02-21T03:49:32;14.07;;;7.77;;
8952;SDS011;4511;50.890;8.054;2024-02-21T03:51:59;14.63;;;7.53;;
8952;SDS011;4511;50.890;8.054;2024-02-21T03:54:25;16.63;;;7.70;;
8952;SDS011;4511;50.890;8.054;2024-02-21T03:56:52;15.77;;;7.27;;
8952;SDS011;4511;50.890;8.054;2024-02-21T03:59:19;15.40;;;7.17;;
8952;SDS011;4511;50.890;8.054;2024-02-21T04:01:45;13.63;;;7.50;;
8952;SDS011;4511;50.890;8.054;2024-02-21T04:04:12;14.67;;;6.90;;
8952;SDS011;4511;50.890;8.054;2024-02-21T04:06:47;12.63;;;7.07;;
8952;SDS011;4511;50.890;8.054;2024-02-21T04:09:14;12.00;;;7.13;;
8952;SDS011;4511;50.890;8.054;2024-02-21T04:11:41;15.73;;;7.23;;
8952;SDS011;4511;50.890;8.054;2024-02-21T04:14:07;14.87;;;7.17;;
8952;SDS011;4511;50.890;8.054;2024-02-21T04:16:36;11.60;;;6.80;;
8952;SDS011;4511;50.890;8.054;2024-02-21T04:19:03;10.83;;;6.63;;
8952;SDS011;4511;50.890;8.054;2024-02-21T04:21:29;13.30;;;7.00;;
8952;SDS011;4511;50.890;8.054;2024-02-21T04:23:57;14.33;;;7.30;;
8952;SDS011;4511;50.890;8.054;2024-02-21T04:26:24;11.57;;;6.50;;
8952;SDS011;4511;50.890;8.054;2024-02-21T04:28:51;17.87;;;7.13;;
8952;SDS011;4511;50.890;8.054;2024-02-21T04:31:18;13.73;;;6.70;;
8952;SDS011;4511;50.890;8.054;2024-02-21T04:33:44;13.73;;;6.37;;
8952;SDS011;4511;50.890;8.054;2024-02-21T04:36:11;13.40;;;6.63;;
8952;SDS011;4511;50.890;8.054;2024-02-21T04:38:38;15.40;;;6.70;;
8952;SDS011;4511;50.890;8.054;2024-02-21T04:41:07;13.30;;;6.47;;
8952;SDS011;4511;50.890;8.054;2024-02-21T04:43:34;12.67;;;6.83;;
8952;SDS011;4511;50.890;8.054;2024-02-21T04:46:01;12.17;;;7.27;;
8952;SDS011;4511;50.890;8.054;2024-02-21T04:48:27;10.87;;;6.73;;
8952;SDS011;4511;50.890;8.054;2024-02-21T04:50:54;12.50;;;7.10;;
8952;SDS011;4511;50.890;8.054;2024-02-21T04:53:21;15.07;;;7.10;;
8952;SDS011;4511;50.890;8.054;2024-02-21T04:55:48;12.87;;;7.03;;
8952;SDS011;4511;50.890;8.054;2024-02-21T04:58:16;11.27;;;6.37;;
8952;SDS011;4511;50.890;8.054;2024-02-21T05:00:42;13.87;;;7.23;;
8952;SDS011;4511;50.890;8.054;2024-02-21T05:03:09;12.33;;;6.30;;
8952;SDS011;4511;50.890;8.054;2024-02-21T05:05:36;14.20;;;6.37;;
8952;SDS011;4511;50.890;8.054;2024-02-21T05:08:03;13.63;;;6.73;;
8952;SDS011;4511;50.890;8.054;2024-02-21T05:10:30;11.00;;;6.37;;
8952;SDS011;4511;50.890;8.054;2024-02-21T05:12:57;13.77;;;6.77;;
8952;SDS011;4511;50.890;8.054;2024-02-21T05:15:25;12.97;;;6.90;;
8952;SDS011;4511;50.890;8.054;2024-02-21T05:17:51;11.70;;;6.63;;
8952;SDS011;4511;50.890;8.054;2024-02-21T05:20:18;13.53;;;6.47;;
8952;SDS011;4511;50.890;8.054;2024-02-21T05:22:45;9.50;;;6.23;;
8952;SDS011;4511;50.890;8.054;2024-02-21T05:25:11;11.73;;;6.43;;
8952;SDS011;4511;50.890;8.054;2024-02-21T05:27:38;12.67;;;7.03;;
8952;SDS011;4511;50.890;8.054;2024-02-21T05:30:05;10.53;;;6.20;;
8952;SDS011;4511;50.890;8.054;2024-02-21T05:32:34;12.83;;;6.73;;
8952;SDS011;4511;50.890;8.054;2024-02-21T05:35:01;12.00;;;6.60;;
8952;SDS011;4511;50.890;8.054;2024-02-21T05:37:27;9.87;;;5.80;;
8952;SDS011;4511;50.890;8.054;2024-02-21T05:39:54;14.13;;;6.30;;
8952;SDS011;4511;50.890;8.054;2024-02-21T05:42:21;13.57;;;6.67;;
8952;SDS011;4511;50.890;8.054;2024-02-21T05:44:47;14.83;;;6.60;;
8952;SDS011;4511;50.890;8.054;2024-02-21T05:47:14;12.87;;;6.33;;
8952;SDS011;4511;50.890;8.054;2024-02-21T05:49:42;15.33;;;6.83;;
8952;SDS011;4511;50.890;8.054;2024-02-21T05:52:09;14.03;;;6.00;;
8952;SDS011;4511;50.890;8.054;2024-02-21T05:54:37;11.23;;;6.50;;
8952;SDS011;4511;50.890;8.054;2024-02-21T05:57:04;11.70;;;6.20;;
8952;SDS011;4511;50.890;8.054;2024-02-21T05:59:32;13.37;;;6.40;;
8952;SDS011;4511;50.890;8.054;2024-02-21T06:02:00;18.37;;;6.40;;
8952;SDS011;4511;50.890;8.054;2024-02-21T06:04:28;10.47;;;6.30;;
8952;SDS011;4511;50.890;8.054;2024-02-21T06:06:57;16.03;;;6.20;;
8952;SDS011;4511;50.890;8.054;2024-02-21T06:09:23;14.17;;;6.17;;
8952;SDS011;4511;50.890;8.054;2024-02-21T06:11:50;11.40;;;6.07;;
8952;SDS011;4511;50.890;8.054;2024-02-21T06:14:17;13.33;;;6.33;;
8952;SDS011;4511;50.890;8.054;2024-02-21T06:16:44;12.30;;;5.90;;
8952;SDS011;4511;50.890;8.054;2024-02-21T06:19:10;11.33;;;5.97;;
8952;SDS011;4511;50.890;8.054;2024-02-21T06:21:37;9.13;;;5.90;;
8952;SDS011;4511;50.890;8.054;2024-02-21T06:24:05;10.57;;;6.10;;
8952;SDS011;4511;50.890;8.054;2024-02-21T06:26:32;9.63;;;6.07;;
8952;SDS011;4511;50.890;8.054;2024-02-21T06:28:59;12.30;;;6.03;;
8952;SDS011;4511;50.890;8.054;2024-02-21T06:31:26;11.07;;;6.20;;
8952;SDS011;4511;50.890;8.054;2024-02-21T06:33:53;12.47;;;5.97;;
8952;SDS011;4511;50.890;8.054;2024-02-21T06:36:20;13.03;;;6.17;;
8952;SDS011;4511;50.890;8.054;2024-02-21T06:38:47;13.77;;;6.87;;
8952;SDS011;4511;50.890;8.054;2024-02-21T06:41:18;16.13;;;6.50;;
8952;SDS011;4511;50.890;8.054;2024-02-21T06:43:45;13.73;;;6.63;;
8952;SDS011;4511;50.890;8.054;2024-02-21T06:46:11;13.43;;;6.37;;
8952;SDS011;4511;50.890;8.054;2024-02-21T06:48:48;12.20;;;6.00;;
8952;SDS011;4511;50.890;8.054;2024-02-21T06:51:15;10.03;;;5.60;;
8952;SDS011;4511;50.890;8.054;2024-02-21T06:53:42;12.73;;;5.50;;
8952;SDS011;4511;50.890;8.054;2024-02-21T06:56:09;10.47;;;5.50;;
8952;SDS011;4511;50.890;8.054;2024-02-21T06:58:37;11.30;;;5.70;;
8952;SDS011;4511;50.890;8.054;2024-02-21T07:01:04;10.43;;;5.37;;
8952;SDS011;4511;50.890;8.054;2024-02-21T07:03:31;10.73;;;5.97;;
8952;SDS011;4511;50.890;8.054;2024-02-21T07:05:58;12.67;;;6.00;;
8952;SDS011;4511;50.890;8.054;2024-02-21T07:08:24;10.20;;;5.40;;
8952;SDS011;4511;50.890;8.054;2024-02-21T07:10:51;11.77;;;5.57;;
8952;SDS011;4511;50.890;8.054;2024-02-21T07:13:18;9.50;;;5.33;;
8952;SDS011;4511;50.890;8.054;2024-02-21T07:15:47;11.67;;;6.00;;
8952;SDS011;4511;50.890;8.054;2024-02-21T07:18:14;11.40;;;5.73;;
8952;SDS011;4511;50.890;8.054;2024-02-21T07:20:41;13.10;;;5.77;;
8952;SDS011;4511;50.890;8.054;2024-02-21T07:23:08;8.13;;;5.53;;
8952;SDS011;4511;50.890;8.054;2024-02-21T07:25:34;9.90;;;5.80;;
8952;SDS011;4511;50.890;8.054;2024-02-21T07:28:01;9.67;;;6.07;;
8952;SDS011;4511;50.890;8.054;2024-02-21T07:30:28;14.87;;;6.13;;
8952;SDS011;4511;50.890;8.054;2024-02-21T07:32:57;12.67;;;6.10;;
8952;SDS011;4511;50.890;8.054;2024-02-21T07:35:23;16.63;;;6.27;;
8952;SDS011;4511;50.890;8.054;2024-02-21T07:37:50;13.23;;;5.43;;
8952;SDS011;4511;50.890;8.054;2024-02-21T07:40:17;9.97;;;5.90;;
8952;SDS011;4511;50.890;8.054;2024-02-21T07:42:44;11.10;;;5.67;;
8952;SDS011;4511;50.890;8.054;2024-02-21T07:45:11;9.23;;;6.00;;
8952;SDS011;4511;50.890;8.054;2024-02-21T07:47:37;12.60;;;6.63;;
8952;SDS011;4511;50.890;8.054;2024-02-21T07:50:06;11.20;;;5.77;;
8952;SDS011;4511;50.890;8.054;2024-02-21T07:52:34;11.40;;;5.63;;
8952;SDS011;4511;50.890;8.054;2024-02-21T07:55:01;13.87;;;5.70;;
8952;SDS011;4511;50.890;8.054;2024-02-21T07:57:28;12.43;;;5.97;;
8952;SDS011;4511;50.890;8.054;2024-02-21T07:59:55;12.90;;;6.03;;
8952;SDS011;4511;50.890;8.054;2024-02-21T08:02:21;11.33;;;5.53;;
8952;SDS011;4511;50.890;8.054;2024-02-21T08:04:48;11.30;;;5.50;;
8952;SDS011;4511;50.890;8.054;2024-02-21T08:07:16;9.40;;;5.47;;
8952;SDS011;4511;50.890;8.054;2024-02-21T08:09:43;11.43;;;5.93;;
8952;SDS011;4511;50.890;8.054;2024-02-21T08:12:09;13.13;;;5.90;;
8952;SDS011;4511;50.890;8.054;2024-02-21T08:14:36;10.07;;;5.63;;
8952;SDS011;4511;50.890;8.054;2024-02-21T08:17:03;10.43;;;6.07;;
8952;SDS011;4511;50.890;8.054;2024-02-21T08:19:30;10.47;;;5.70;;
8952;SDS011;4511;50.890;8.054;2024-02-21T08:21:56;10.63;;;5.73;;
8952;SDS011;4511;50.890;8.054;2024-02-21T08:24:24;11.47;;;5.70;;
8952;SDS011;4511;50.890;8.054;2024-02-21T08:26:51;11.13;;;5.87;;
8952;SDS011;4511;50.890;8.054;2024-02-21T08:29:18;12.73;;;6.30;;
8952;SDS011;4511;50.890;8.054;2024-02-21T08:31:45;13.40;;;6.10;;
8952;SDS011;4511;50.890;8.054;2024-02-21T08:34:11;12.07;;;6.40;;
8952;SDS011;4511;50.890;8.054;2024-02-21T08:36:38;14.27;;;6.20;;
8952;SDS011;4511;50.890;8.054;2024-02-21T08:39:05;15.37;;;7.10;;
8952;SDS011;4511;50.890;8.054;2024-02-21T08:41:33;9.53;;;6.00;;
8952;SDS011;4511;50.890;8.054;2024-02-21T08:44:00;12.43;;;6.27;;
8952;SDS011;4511;50.890;8.054;2024-02-21T08:46:28;15.90;;;6.60;;
8952;SDS011;4511;50.890;8.054;2024-02-21T08:48:55;17.63;;;6.30;;
8952;SDS011;4511;50.890;8.054;2024-02-21T08:51:21;13.50;;;7.10;;
8952;SDS011;4511;50.890;8.054;2024-02-21T08:53:48;11.93;;;5.97;;
8952;SDS011;4511;50.890;8.054;2024-02-21T08:56:15;14.93;;;6.40;;
8952;SDS011;4511;50.890;8.054;2024-02-21T08:58:44;12.93;;;6.60;;
8952;SDS011;4511;50.890;8.054;2024-02-21T09:01:11;13.17;;;5.90;;
8952;SDS011;4511;50.890;8.054;2024-02-21T09:03:39;19.20;;;7.30;;
8952;SDS011;4511;50.890;8.054;2024-02-21T09:06:05;17.00;;;6.50;;
8952;SDS011;4511;50.890;8.054;2024-02-21T09:08:33;15.43;;;7.00;;
8952;SDS011;4511;50.890;8.054;2024-02-21T09:11:00;14.50;;;6.50;;
8952;SDS011;4511;50.890;8.054;2024-02-21T09:13:27;17.30;;;6.87;;
8952;SDS011;4511;50.890;8.054;2024-02-21T09:15:56;16.43;;;6.20;;
8952;SDS011;4511;50.890;8.054;2024-02-21T09:18:23;12.10;;;6.43;;
8952;SDS011;4511;50.890;8.054;2024-02-21T09:20:49;14.93;;;6.57;;
8952;SDS011;4511;50.890;8.054;2024-02-21T09:23:17;15.00;;;6.47;;
8952;SDS011;4511;50.890;8.054;2024-02-21T09:25:44;14.40;;;6.57;;
8952;SDS011;4511;50.890;8.054;2024-02-21T09:28:12;14.70;;;7.30;;
8952;SDS011;4511;50.890;8.054;2024-02-21T09:30:39;12.90;;;6.13;;
8952;SDS011;4511;50.890;8.054;2024-02-21T09:33:07;10.87;;;6.23;;
8952;SDS011;4511;50.890;8.054;2024-02-21T09:35:33;17.03;;;6.40;;
8952;SDS011;4511;50.890;8.054;2024-02-21T09:38:00;13.60;;;6.33;;
8952;SDS011;4511;50.890;8.054;2024-02-21T09:40:27;15.00;;;6.43;;
8952;SDS011;4511;50.890;8.054;2024-02-21T09:42:56;10.73;;;6.27;;
8952;SDS011;4511;50.890;8.054;2024-02-21T09:45:29;16.63;;;6.47;;
8952;SDS011;4511;50.890;8.054;2024-02-21T09:48:00;15.73;;;6.70;;
8952;SDS011;4511;50.890;8.054;2024-02-21T09:50:47;12.53;;;6.13;;
8952;SDS011;4511;50.890;8.054;2024-02-21T09:53:16;9.10;;;6.20;;
8952;SDS011;4511;50.890;8.054;2024-02-21T09:55:44;12.60;;;6.23;;
8952;SDS011;4511;50.890;8.054;2024-02-21T09:58:11;15.27;;;6.83;;
8952;SDS011;4511;50.890;8.054;2024-02-21T10:00:38;8.77;;;5.60;;
8952;SDS011;4511;50.890;8.054;2024-02-21T10:03:05;17.00;;;6.17;;
8952;SDS011;4511;50.890;8.054;2024-02-21T10:05:35;11.33;;;5.60;;
8952;SDS011;4511;50.890;8.054;2024-02-21T10:08:03;11.87;;;5.97;;
8952;SDS011;4511;50.890;8.054;2024-02-21T10:10:40;11.40;;;5.90;;
8952;SDS011;4511;50.890;8.054;2024-02-21T10:13:07;10.13;;;6.03;;
8952;SDS011;4511;50.890;8.054;2024-02-21T10:15:35;10.43;;;6.07;;
8952;SDS011;4511;50.890;8.054;2024-02-21T10:18:02;10.10;;;5.33;;
8952;SDS011;4511;50.890;8.054;2024-02-21T10:20:29;10.20;;;5.70;;
8952;SDS011;4511;50.890;8.054;2024-02-21T10:23:02;13.60;;;5.80;;
8952;SDS011;4511;50.890;8.054;2024-02-21T10:25:33;11.40;;;6.10;;
8952;SDS011;4511;50.890;8.054;2024-02-21T10:28:00;11.07;;;6.00;;
8952;SDS011;4511;50.890;8.054;2024-02-21T10:30:28;7.67;;;5.23;;
8952;SDS011;4511;50.890;8.054;2024-02-21T10:32:55;9.90;;;5.40;;
8952;SDS011;4511;50.890;8.054;2024-02-21T10:35:26;11.50;;;6.00;;
8952;SDS011;4511;50.890;8.054;2024-02-21T10:37:54;12.83;;;5.70;;
8952;SDS011;4511;50.890;8.054;2024-02-21T10:40:23;9.00;;;5.70;;
8952;SDS011;4511;50.890;8.054;2024-02-21T10:42:51;9.77;;;5.90;;
8952;SDS011;4511;50.890;8.054;2024-02-21T10:45:24;11.53;;;5.60;;
8952;SDS011;4511;50.890;8.054;2024-02-21T10:48:00;11.30;;;5.70;;
8952;SDS011;4511;50.890;8.054;2024-02-21T10:50:41;15.03;;;5.53;;
8952;SDS011;4511;50.890;8.054;2024-02-21T10:53:20;12.07;;;6.17;;
8952;SDS011;4511;50.890;8.054;2024-02-21T10:55:58;9.93;;;5.80;;
8952;SDS011;4511;50.890;8.054;2024-02-21T10:58:33;12.10;;;5.53;;
8952;SDS011;4511;50.890;8.054;2024-02-21T11:01:00;13.77;;;6.10;;
8952;SDS011;4511;50.890;8.054;2024-02-21T11:03:29;9.17;;;5.50;;
8952;SDS011;4511;50.890;8.054;2024-02-21T11:05:56;11.57;;;5.87;;
8952;SDS011;4511;50.890;8.054;2024-02-21T11:08:24;10.53;;;5.40;;
8952;SDS011;4511;50.890;8.054;2024-02-21T11:10:57;11.23;;;5.67;;
8952;SDS011;4511;50.890;8.054;2024-02-21T11:13:29;9.40;;;5.40;;
8952;SDS011;4511;50.890;8.054;2024-02-21T11:16:05;11.47;;;5.70;;
8952;SDS011;4511;50.890;8.054;2024-02-21T11:18:34;10.83;;;5.40;;
8952;SDS011;4511;50.890;8.054;2024-02-21T11:21:00;10.20;;;5.13;;
8952;SDS011;4511;50.890;8.054;2024-02-21T11:23:29;10.97;;;4.93;;
8952;SDS011;4511;50.890;8.054;2024-02-21T11:26:07;7.33;;;4.63;;
8952;SDS011;4511;50.890;8.054;2024-02-21T11:28:34;8.40;;;5.43;;
8952;SDS011;4511;50.890;8.054;2024-02-21T11:31:09;9.30;;;5.37;;
8952;SDS011;4511;50.890;8.054;2024-02-21T11:33:39;11.17;;;4.87;;
8952;SDS011;4511;50.890;8.054;2024-02-21T11:36:07;8.17;;;5.43;;
8952;SDS011;4511;50.890;8.054;2024-02-21T11:38:34;10.07;;;5.40;;
8952;SDS011;4511;50.890;8.054;2024-02-21T11:41:01;10.60;;;4.90;;
8952;SDS011;4511;50.890;8.054;2024-02-21T11:43:29;8.20;;;5.20;;
8952;SDS011;4511;50.890;8.054;2024-02-21T11:45:59;10.47;;;4.70;;
8952;SDS011;4511;50.890;8.054;2024-02-21T11:48:28;8.10;;;4.90;;
8952;SDS011;4511;50.890;8.054;2024-02-21T11:50:55;11.57;;;4.97;;
8952;SDS011;4511;50.890;8.054;2024-02-21T11:53:22;12.27;;;4.87;;
8952;SDS011;4511;50.890;8.054;2024-02-21T11:55:52;10.03;;;5.10;;
8952;SDS011;4511;50.890;8.054;2024-02-21T11:58:20;9.77;;;4.57;;
8952;SDS011;4511;50.890;8.054;2024-02-21T12:00:49;10.67;;;5.17;;
8952;SDS011;4511;50.890;8.054;2024-02-21T12:03:15;11.90;;;5.10;;
8952;SDS011;4511;50.890;8.054;2024-02-21T12:05:42;12.97;;;4.70;;
8952;SDS011;4511;50.890;8.054;2024-02-21T12:08:11;7.90;;;4.83;;
8952;SDS011;4511;50.890;8.054;2024-02-21T12:10:38;10.03;;;4.83;;
8952;SDS011;4511;50.890;8.054;2024-02-21T12:13:05;9.70;;;4.83;;
8952;SDS011;4511;50.890;8.054;2024-02-21T12:15:34;6.53;;;4.63;;
8952;SDS011;4511;50.890;8.054;2024-02-21T12:18:02;7.50;;;4.43;;
8952;SDS011;4511;50.890;8.054;2024-02-21T12:20:30;7.97;;;4.23;;
8952;SDS011;4511;50.890;8.054;2024-02-21T12:22:57;7.90;;;4.20;;
8952;SDS011;4511;50.890;8.054;2024-02-21T12:25:26;6.40;;;4.47;;
8952;SDS011;4511;50.890;8.054;2024-02-21T12:27:54;9.63;;;4.50;;
8952;SDS011;4511;50.890;8.054;2024-02-21T12:30:21;9.90;;;4.60;;
8952;SDS011;4511;50.890;8.054;2024-02-21T12:32:48;9.03;;;4.37;;
8952;SDS011;4511;50.890;8.054;2024-02-21T12:35:16;8.70;;;4.30;;
8952;SDS011;4511;50.890;8.054;2024-02-21T12:37:44;10.83;;;4.20;;
8952;SDS011;4511;50.890;8.054;2024-02-21T12:40:11;9.43;;;4.30;;
8952;SDS011;4511;50.890;8.054;2024-02-21T12:42:38;10.90;;;4.40;;
8952;SDS011;4511;50.890;8.054;2024-02-21T12:45:05;7.40;;;4.40;;
8952;SDS011;4511;50.890;8.054;2024-02-21T12:47:32;7.83;;;4.30;;
8952;SDS011;4511;50.890;8.054;2024-02-21T12:49:59;9.33;;;4.03;;
8952;SDS011;4511;50.890;8.054;2024-02-21T12:52:29;7.03;;;3.93;;
8952;SDS011;4511;50.890;8.054;2024-02-21T12:54:56;8.63;;;4.20;;
8952;SDS011;4511;50.890;8.054;2024-02-21T12:57:23;7.60;;;4.00;;
8952;SDS011;4511;50.890;8.054;2024-02-21T12:59:50;8.63;;;3.87;;
8952;SDS011;4511;50.890;8.054;2024-02-21T13:02:17;4.90;;;3.70;;
8952;SDS011;4511;50.890;8.054;2024-02-21T13:04:45;10.67;;;4.40;;
8952;SDS011;4511;50.890;8.054;2024-02-21T13:07:11;7.67;;;3.50;;
8952;SDS011;4511;50.890;8.054;2024-02-21T13:09:39;8.40;;;3.70;;
8952;SDS011;4511;50.890;8.054;2024-02-21T13:12:06;5.17;;;3.50;;
8952;SDS011;4511;50.890;8.054;2024-02-21T13:14:34;6.83;;;3.60;;
8952;SDS011;4511;50.890;8.054;2024-02-21T13:17:03;7.00;;;3.57;;
8952;SDS011;4511;50.890;8.054;2024-02-21T13:19:30;7.27;;;3.87;;
8952;SDS011;4511;50.890;8.054;2024-02-21T13:21:57;9.13;;;3.70;;
8952;SDS011;4511;50.890;8.054;2024-02-21T13:24:24;7.10;;;4.00;;
8952;SDS011;4511;50.890;8.054;2024-02-21T13:26:52;9.57;;;3.43;;
8952;SDS011;4511;50.890;8.054;2024-02-21T13:29:18;7.50;;;3.57;;
8952;SDS011;4511;50.890;8.054;2024-02-21T13:31:46;7.43;;;3.60;;
8952;SDS011;4511;50.890;8.054;2024-02-21T13:34:13;4.57;;;3.30;;
8952;SDS011;4511;50.890;8.054;2024-02-21T13:36:39;10.33;;;3.57;;
8952;SDS011;4511;50.890;8.054;2024-02-21T13:39:06;8.10;;;3.30;;
8952;SDS011;4511;50.890;8.054;2024-02-21T13:41:37;9.37;;;3.90;;
8952;SDS011;4511;50.890;8.054;2024-02-21T13:44:06;8.60;;;3.37;;
8952;SDS011;4511;50.890;8.054;2024-02-21T13:46:32;4.73;;;3.23;;
8952;SDS011;4511;50.890;8.054;2024-02-21T13:49:02;3.50;;;3.20;;
8952;SDS011;4511;50.890;8.054;2024-02-21T13:51:31;12.70;;;3.50;;
8952;SDS011;4511;50.890;8.054;2024-02-21T13:53:59;6.67;;;3.33;;
8952;SDS011;4511;50.890;8.054;2024-02-21T13:56:26;6.30;;;3.10;;
8952;SDS011;4511;50.890;8.054;2024-02-21T13:58:52;5.43;;;2.93;;
8952;SDS011;4511;50.890;8.054;2024-02-21T14:01:20;11.03;;;3.43;;
8952;SDS011;4511;50.890;8.054;2024-02-21T14:03:47;6.07;;;3.30;;
8952;SDS011;4511;50.890;8.054;2024-02-21T14:06:14;6.83;;;3.30;;
8952;SDS011;4511;50.890;8.054;2024-02-21T14:08:42;5.17;;;2.77;;
8952;SDS011;4511;50.890;8.054;2024-02-21T14:11:08;8.00;;;3.10;;
8952;SDS011;4511;50.890;8.054;2024-02-21T14:13:35;5.47;;;2.83;;
8952;SDS011;4511;50.890;8.054;2024-02-21T14:16:02;6.87;;;2.93;;
8952;SDS011;4511;50.890;8.054;2024-02-21T14:18:37;5.57;;;3.07;;
8952;SDS011;4511;50.890;8.054;2024-02-21T14:21:06;6.23;;;2.83;;
8952;SDS011;4511;50.890;8.054;2024-02-21T14:23:32;4.37;;;2.77;;
8952;SDS011;4511;50.890;8.054;2024-02-21T14:25:59;6.13;;;3.00;;
8952;SDS011;4511;50.890;8.054;2024-02-21T14:28:26;8.57;;;3.23;;
8952;SDS011;4511;50.890;8.054;2024-02-21T14:30:53;5.77;;;3.20;;
8952;SDS011;4511;50.890;8.054;2024-02-21T14:33:22;4.30;;;3.20;;
8952;SDS011;4511;50.890;8.054;2024-02-21T14:35:50;7.97;;;3.30;;
8952;SDS011;4511;50.890;8.054;2024-02-21T14:38:17;5.20;;;3.00;;
8952;SDS011;4511;50.890;8.054;2024-02-21T14:40:44;6.47;;;3.00;;
8952;SDS011;4511;50.890;8.054;2024-02-21T14:43:11;7.80;;;3.10;;
8952;SDS011;4511;50.890;8.054;2024-02-21T14:45:38;5.03;;;3.20;;
8952;SDS011;4511;50.890;8.054;2024-02-21T14:48:05;8.17;;;3.30;;
8952;SDS011;4511;50.890;8.054;2024-02-21T14:50:33;5.60;;;3.17;;
8952;SDS011;4511;50.890;8.054;2024-02-21T14:53:01;4.77;;;2.77;;
8952;SDS011;4511;50.890;8.054;2024-02-21T14:55:27;5.57;;;3.00;;
8952;SDS011;4511;50.890;8.054;2024-02-21T14:57:54;5.97;;;3.20;;
8952;SDS011;4511;50.890;8.054;2024-02-21T15:00:21;7.00;;;2.87;;
8952;SDS011;4511;50.890;8.054;2024-02-21T15:02:54;4.90;;;3.17;;
8952;SDS011;4511;50.890;8.054;2024-02-21T15:05:21;7.50;;;3.60;;
8952;SDS011;4511;50.890;8.054;2024-02-21T15:07:48;8.07;;;3.13;;